createdAt,value
2018-11-01T00:00:22.218Z,7.30
2018-11-01T00:02:51.587Z,7.30
2018-11-01T00:05:20.912Z,7.20
2018-11-01T00:07:50.278Z,7.20
2018-11-01T00:10:19.601Z,7.20
2018-11-01T00:12:49.001Z,7.20
2018-11-01T00:15:19.145Z,7.10
2018-11-01T00:17:48.574Z,7.20
2018-11-01T00:20:17.988Z,7.10
2018-11-01T00:22:47.466Z,7.10
2018-11-01T00:25:16.853Z,7.10
2018-11-01T00:27:46.251Z,7.10
2018-11-01T00:30:15.648Z,7.10
2018-11-01T00:32:45.011Z,7.10
2018-11-01T00:35:14.373Z,7.10
2018-11-01T00:37:43.758Z,7.10
2018-11-01T00:40:14.683Z,7.10
2018-11-01T00:42:45.041Z,7.10
2018-11-01T00:45:14.464Z,7.00
2018-11-01T00:47:43.823Z,7.00
2018-11-01T00:50:14.427Z,7.00
2018-11-01T00:52:44.144Z,7.00
2018-11-01T00:55:14.139Z,6.90
2018-11-01T00:57:43.840Z,6.90
2018-11-01T01:00:15.147Z,6.90
2018-11-01T01:02:44.575Z,6.80
2018-11-01T01:05:14.028Z,6.80
2018-11-01T01:07:43.416Z,6.80
2018-11-01T01:10:16.438Z,6.80
2018-11-01T01:12:47.405Z,6.80
2018-11-01T01:15:16.818Z,6.70
2018-11-01T01:17:46.185Z,6.70
2018-11-01T01:20:16.600Z,6.70
2018-11-01T01:22:46.849Z,6.70
2018-11-01T01:25:17.501Z,6.80
2018-11-01T01:27:46.881Z,6.70
2018-11-01T01:30:20.687Z,6.80
2018-11-01T01:32:50.714Z,6.80
2018-11-01T01:35:20.130Z,6.80
2018-11-01T01:37:49.498Z,6.70
2018-11-01T01:40:18.901Z,6.70
2018-11-01T01:42:53.423Z,6.70
2018-11-01T01:45:23.739Z,6.70
2018-11-01T01:47:53.151Z,6.60
2018-11-01T01:50:22.614Z,6.60
2018-11-01T01:52:51.941Z,6.60
2018-11-01T01:55:21.323Z,6.60
2018-11-01T01:57:50.728Z,6.70
2018-11-01T02:00:21.001Z,6.60
2018-11-01T02:02:51.539Z,6.60
2018-11-01T02:05:20.936Z,6.60
2018-11-01T02:07:50.281Z,6.60
2018-11-01T02:10:19.783Z,6.60
2018-11-01T02:12:49.130Z,6.60
2018-11-01T02:15:19.956Z,6.60
2018-11-01T02:17:49.462Z,6.50
2018-11-01T02:20:20.079Z,6.40
2018-11-01T02:22:49.687Z,6.40
2018-11-01T02:25:19.217Z,6.40
2018-11-01T02:27:53.924Z,6.40
2018-11-01T02:30:23.336Z,6.40
2018-11-01T02:32:52.725Z,6.30
2018-11-01T02:35:22.155Z,6.30
2018-11-01T02:37:51.738Z,6.30
2018-11-01T02:40:21.257Z,6.30
2018-11-01T02:42:50.747Z,6.30
2018-11-01T02:45:20.248Z,6.30
2018-11-01T02:47:49.708Z,6.30
2018-11-01T02:50:19.070Z,6.30
2018-11-01T02:52:48.488Z,6.20
2018-11-01T02:55:17.876Z,6.30
2018-11-01T02:57:47.272Z,6.20
2018-11-01T03:00:17.369Z,6.20
2018-11-01T03:02:46.768Z,6.20
2018-11-01T03:05:16.183Z,6.20
2018-11-01T03:07:45.573Z,6.20
2018-11-01T03:10:15.538Z,6.10
2018-11-01T03:12:44.942Z,6.10
2018-11-01T03:15:15.372Z,6.10
2018-11-01T03:17:44.732Z,6.00
2018-11-01T03:20:14.267Z,5.90
2018-11-01T03:22:43.691Z,5.90
2018-11-01T03:25:13.065Z,5.80
2018-11-01T03:27:42.459Z,5.80
2018-11-01T03:33:22.325Z,5.70
2018-11-01T03:35:51.857Z,5.70
2018-11-01T03:38:21.470Z,5.70
2018-11-01T03:40:50.774Z,5.70
2018-11-01T03:43:20.234Z,5.70
2018-11-01T03:45:49.743Z,5.70
2018-11-01T03:48:19.095Z,5.70
2018-11-01T03:50:48.499Z,5.70
2018-11-01T03:53:17.956Z,5.60
2018-11-01T03:55:47.502Z,5.60
2018-11-01T03:58:16.922Z,5.60
2018-11-01T04:00:46.323Z,5.60
2018-11-01T04:03:15.715Z,5.60
2018-11-01T04:05:45.211Z,5.70
2018-11-01T04:08:14.675Z,5.70
2018-11-01T04:10:44.196Z,5.70
2018-11-01T04:13:13.650Z,5.70
2018-11-01T04:15:43.137Z,5.70
2018-11-01T04:18:12.471Z,5.60
2018-11-01T04:20:41.887Z,5.60
2018-11-01T04:23:11.376Z,5.70
2018-11-01T04:25:40.887Z,5.70
2018-11-01T04:28:10.239Z,5.70
2018-11-01T04:30:39.955Z,5.80
2018-11-01T04:33:09.932Z,5.80
2018-11-01T04:35:39.357Z,5.60
2018-11-01T04:38:08.790Z,5.60
2018-11-01T04:40:38.318Z,5.60
2018-11-01T04:43:07.667Z,5.70
2018-11-01T04:45:37.891Z,5.70
2018-11-01T04:48:07.473Z,5.80
2018-11-01T04:50:36.879Z,5.70
2018-11-01T04:53:06.473Z,5.80
2018-11-01T04:55:35.862Z,5.80
2018-11-01T04:58:05.394Z,5.80
2018-11-01T05:00:34.830Z,5.80
2018-11-01T05:03:04.209Z,5.90
2018-11-01T05:05:33.684Z,5.90
2018-11-01T05:08:03.094Z,5.90
2018-11-01T05:10:32.578Z,5.90
2018-11-01T05:13:02.058Z,5.90
2018-11-01T05:15:31.525Z,5.90
2018-11-01T05:18:04.219Z,6.00
2018-11-01T05:20:33.763Z,6.00
2018-11-01T05:23:03.295Z,6.10
2018-11-01T05:25:32.811Z,6.10
2018-11-01T05:28:02.372Z,6.10
2018-11-01T05:30:31.771Z,6.10
2018-11-01T05:33:01.365Z,6.10
2018-11-01T05:35:34.664Z,6.10
2018-11-01T05:38:06.455Z,6.10
2018-11-01T05:40:39.152Z,6.20
2018-11-01T05:43:11.953Z,6.30
2018-11-01T05:45:41.841Z,6.40
2018-11-01T05:48:12.492Z,6.50
2018-11-01T05:50:43.721Z,6.60
2018-11-01T05:53:14.766Z,6.70
2018-11-01T05:55:44.451Z,6.80
2018-11-01T05:58:17.076Z,6.90
2018-11-01T06:00:46.656Z,6.90
2018-11-01T06:03:16.493Z,7.00
2018-11-01T06:05:46.556Z,7.00
2018-11-01T06:08:23.352Z,7.10
2018-11-01T06:10:53.004Z,7.00
2018-11-01T06:13:22.435Z,7.00
2018-11-01T06:15:51.960Z,7.10
2018-11-01T06:18:21.285Z,7.00
2018-11-01T06:20:50.658Z,7.00
2018-11-01T06:23:20.150Z,6.90
2018-11-01T06:25:49.654Z,6.90
2018-11-01T06:28:19.192Z,6.80
2018-11-01T06:30:48.581Z,6.80
2018-11-01T06:33:18.629Z,6.80
2018-11-01T06:35:58.167Z,6.90
2018-11-01T06:38:35.877Z,6.90
2018-11-01T06:44:06.786Z,7.10
2018-11-01T06:46:36.321Z,7.20
2018-11-01T06:49:06.667Z,7.40
2018-11-01T06:51:36.060Z,7.50
2018-11-01T06:54:06.200Z,7.60
2018-11-01T06:56:35.638Z,7.70
2018-11-01T06:59:05.287Z,7.80
2018-11-01T07:01:34.553Z,7.80
2018-11-01T07:04:04.017Z,7.80
2018-11-01T07:06:33.471Z,7.80
2018-11-01T07:09:03.047Z,7.70
2018-11-01T07:11:32.464Z,7.70
2018-11-01T07:14:01.851Z,7.60
2018-11-01T07:16:31.303Z,7.70
2018-11-01T07:19:00.755Z,7.70
2018-11-01T07:21:30.251Z,7.70
2018-11-01T07:23:59.770Z,7.70
2018-11-01T07:26:29.420Z,7.60
2018-11-01T07:28:58.830Z,7.60
2018-11-01T07:31:28.460Z,7.50
2018-11-01T07:33:58.601Z,7.50
2018-11-01T07:36:27.959Z,7.50
2018-11-01T07:38:57.362Z,7.50
2018-11-01T07:41:26.819Z,7.50
2018-11-01T07:43:56.279Z,7.50
2018-11-01T07:46:25.761Z,7.60
2018-11-01T07:48:55.168Z,7.70
2018-11-01T07:51:24.523Z,7.80
2018-11-01T07:53:53.982Z,7.80
2018-11-01T07:56:23.339Z,7.80
2018-11-01T07:58:52.775Z,7.80
2018-11-01T08:01:22.234Z,7.80
2018-11-01T08:03:51.799Z,7.80
2018-11-01T08:06:21.275Z,7.90
2018-11-01T08:08:50.707Z,7.90
2018-11-01T08:11:20.196Z,7.90
2018-11-01T08:13:49.674Z,7.90
2018-11-01T08:16:19.353Z,7.90
2018-11-01T08:18:48.992Z,7.90
2018-11-01T08:21:18.669Z,7.90
2018-11-01T08:23:48.061Z,8.00
2018-11-01T08:26:17.534Z,8.00
2018-11-01T08:28:47.041Z,8.10
2018-11-01T08:31:16.434Z,8.20
2018-11-01T08:33:45.824Z,8.20
2018-11-01T08:36:15.293Z,8.20
2018-11-01T08:38:44.716Z,8.30
2018-11-01T08:41:14.135Z,8.30
2018-11-01T08:43:43.553Z,8.40
2018-11-01T08:46:13.147Z,8.40
2018-11-01T08:48:42.621Z,8.50
2018-11-01T08:51:12.192Z,8.60
2018-11-01T08:53:41.640Z,8.60
2018-11-01T08:56:11.084Z,8.70
2018-11-01T08:58:40.551Z,8.80
2018-11-01T09:01:10.008Z,8.90
2018-11-01T09:03:39.399Z,8.90
2018-11-01T09:06:08.893Z,9.00
2018-11-01T09:08:38.207Z,9.00
2018-11-01T09:11:07.568Z,9.00
2018-11-01T09:13:36.963Z,9.00
2018-11-01T09:16:06.514Z,9.10
2018-11-01T09:18:36.422Z,9.10
2018-11-01T09:21:05.957Z,9.10
2018-11-01T09:23:35.505Z,9.10
2018-11-01T09:26:05.084Z,9.00
2018-11-01T09:28:34.558Z,9.00
2018-11-01T09:31:04.067Z,9.00
2018-11-01T09:33:33.624Z,9.00
2018-11-01T09:36:03.891Z,9.00
2018-11-01T09:38:33.301Z,9.10
2018-11-01T09:41:02.861Z,9.10
2018-11-01T09:43:32.310Z,9.10
2018-11-01T09:46:01.915Z,9.10
2018-11-01T09:48:31.307Z,9.10
2018-11-01T09:51:01.071Z,9.20
2018-11-01T09:53:30.489Z,9.10
2018-11-01T09:55:59.901Z,9.10
2018-11-01T09:58:29.601Z,9.20
2018-11-01T10:00:59.212Z,9.20
2018-11-01T10:03:28.871Z,9.30
2018-11-01T10:05:58.395Z,9.20
2018-11-01T10:08:27.939Z,9.30
2018-11-01T10:10:57.421Z,9.30
2018-11-01T10:13:27.661Z,9.30
2018-11-01T10:15:57.374Z,9.30
2018-11-01T10:18:27.060Z,9.30
2018-11-01T10:20:56.022Z,9.40
2018-11-01T10:23:25.537Z,9.40
2018-11-01T10:25:55.195Z,9.30
2018-11-01T10:28:24.641Z,9.30
2018-11-01T10:30:54.213Z,9.40
2018-11-01T10:33:23.605Z,9.50
2018-11-01T10:35:53.795Z,9.50
2018-11-01T10:38:23.218Z,9.50
2018-11-01T10:40:52.698Z,9.60
2018-11-01T10:43:22.134Z,9.60
2018-11-01T10:45:51.509Z,9.70
2018-11-01T10:48:20.909Z,9.70
2018-11-01T10:50:50.689Z,9.70
2018-11-01T10:53:20.198Z,9.70
2018-11-01T10:55:49.744Z,9.70
2018-11-01T10:58:19.177Z,9.70
2018-11-01T11:00:53.877Z,9.80
2018-11-01T11:03:23.192Z,9.90
2018-11-01T11:05:53.366Z,9.90
2018-11-01T11:08:23.045Z,10.00
2018-11-01T11:10:52.939Z,10.10
2018-11-01T11:13:22.483Z,10.10
2018-11-01T11:15:51.983Z,10.10
2018-11-01T11:18:21.396Z,10.20
2018-11-01T11:20:51.110Z,10.30
2018-11-01T11:23:21.024Z,10.40
2018-11-01T11:25:50.601Z,10.50
2018-11-01T11:28:20.105Z,10.60
2018-11-01T11:30:49.573Z,10.60
2018-11-01T11:33:19.006Z,10.80
2018-11-01T11:35:48.609Z,10.80
2018-11-01T11:38:17.994Z,10.90
2018-11-01T11:40:47.548Z,11.10
2018-11-01T11:43:17.036Z,11.20
2018-11-01T11:45:46.536Z,11.30
2018-11-01T11:48:16.084Z,11.40
2018-11-01T11:50:45.604Z,11.50
2018-11-01T11:53:14.962Z,11.60
2018-11-01T11:55:45.376Z,11.70
2018-11-01T11:58:14.755Z,11.80
2018-11-01T12:00:44.366Z,11.80
2018-11-01T12:03:14.599Z,11.90
2018-11-01T12:05:44.881Z,12.00
2018-11-01T12:08:14.493Z,12.00
2018-11-01T12:10:44.019Z,12.10
2018-11-01T12:13:13.525Z,12.20
2018-11-01T12:15:43.141Z,12.30
2018-11-01T12:18:13.480Z,12.40
2018-11-01T12:20:51.175Z,12.50
2018-11-01T12:23:20.688Z,12.60
2018-11-01T12:25:50.501Z,12.70
2018-11-01T12:28:20.010Z,12.80
2018-11-01T12:30:49.863Z,12.90
2018-11-01T12:33:19.363Z,13.00
2018-11-01T12:35:48.804Z,13.00
2018-11-01T12:38:18.256Z,13.10
2018-11-01T12:40:47.652Z,13.10
2018-11-01T12:43:17.130Z,13.10
2018-11-01T12:45:46.561Z,13.10
2018-11-01T12:48:16.103Z,13.20
2018-11-01T12:50:45.511Z,13.20
2018-11-01T12:53:14.941Z,13.20
2018-11-01T12:55:44.511Z,13.20
2018-11-01T12:58:13.955Z,13.30
2018-11-01T13:00:43.459Z,13.20
2018-11-01T13:03:13.225Z,13.30
2018-11-01T13:05:43.099Z,13.30
2018-11-01T13:08:12.494Z,13.30
2018-11-01T13:10:43.010Z,13.20
2018-11-01T13:13:12.426Z,13.10
2018-11-01T13:15:41.873Z,13.10
2018-11-01T13:18:11.405Z,13.10
2018-11-01T13:20:41.192Z,13.10
2018-11-01T13:23:10.674Z,13.10
2018-11-01T13:25:40.319Z,13.00
2018-11-01T13:28:09.722Z,13.00
2018-11-01T13:30:43.005Z,13.00
2018-11-01T13:33:12.557Z,13.00
2018-11-01T13:35:42.128Z,13.10
2018-11-01T13:38:11.676Z,13.00
2018-11-01T13:40:41.498Z,13.00
2018-11-01T13:43:10.801Z,13.00
2018-11-01T13:45:40.640Z,13.00
2018-11-01T13:48:10.380Z,13.00
2018-11-01T13:50:39.946Z,13.10
2018-11-01T13:53:09.689Z,13.10
2018-11-01T13:55:39.554Z,13.10
2018-11-01T13:58:09.069Z,13.10
2018-11-01T14:00:38.551Z,13.00
2018-11-01T14:03:08.333Z,13.00
2018-11-01T14:05:38.254Z,13.00
2018-11-01T14:08:08.068Z,13.00
2018-11-01T14:10:38.122Z,13.10
2018-11-01T14:13:08.144Z,13.00
2018-11-01T14:15:37.908Z,13.00
2018-11-01T14:18:07.812Z,13.00
2018-11-01T14:20:37.393Z,13.10
2018-11-01T14:23:07.320Z,13.10
2018-11-01T14:25:36.958Z,13.00
2018-11-01T14:28:06.675Z,12.90
2018-11-01T14:30:36.222Z,12.90
2018-11-01T14:33:05.844Z,12.90
2018-11-01T14:35:35.545Z,12.90
2018-11-01T14:38:05.717Z,12.90
2018-11-01T14:40:35.013Z,12.90
2018-11-01T14:43:04.467Z,12.80
2018-11-01T14:45:33.994Z,12.90
2018-11-01T14:48:05.939Z,12.80
2018-11-01T14:50:35.543Z,12.80
2018-11-01T14:53:06.251Z,12.90
2018-11-01T14:55:36.528Z,12.90
2018-11-01T14:58:05.770Z,12.90
2018-11-01T15:00:33.970Z,12.90
2018-11-01T15:03:03.535Z,12.90
2018-11-01T15:05:33.002Z,12.90
2018-11-01T15:08:02.412Z,12.90
2018-11-01T15:10:31.787Z,12.90
2018-11-01T15:13:01.253Z,12.80
2018-11-01T15:15:30.630Z,12.80
2018-11-01T15:18:00.179Z,12.80
2018-11-01T15:20:29.658Z,12.90
2018-11-01T15:22:59.168Z,12.90
2018-11-01T15:25:28.757Z,12.80
2018-11-01T15:27:58.699Z,12.70
2018-11-01T15:30:28.131Z,12.70
2018-11-01T15:32:57.805Z,12.70
2018-11-01T15:35:27.444Z,12.70
2018-11-01T15:37:57.032Z,12.70
2018-11-01T15:40:27.545Z,12.70
2018-11-01T15:42:58.105Z,12.60
2018-11-01T15:45:27.610Z,12.60
2018-11-01T15:48:00.951Z,12.60
2018-11-01T15:50:30.440Z,12.60
2018-11-01T15:52:59.837Z,12.60
2018-11-01T15:55:29.304Z,12.50
2018-11-01T15:57:59.545Z,12.50
2018-11-01T16:00:29.007Z,12.40
2018-11-01T16:02:58.505Z,12.40
2018-11-01T16:05:28.076Z,12.30
2018-11-01T16:07:57.541Z,12.30
2018-11-01T16:10:27.094Z,12.20
2018-11-01T16:12:56.556Z,12.10
2018-11-01T16:15:26.004Z,12.10
2018-11-01T16:17:55.442Z,12.00
2018-11-01T16:20:25.033Z,11.90
2018-11-01T16:22:54.448Z,11.90
2018-11-01T16:25:24.001Z,11.70
2018-11-01T16:27:53.477Z,11.60
2018-11-01T16:30:23.560Z,11.60
2018-11-01T16:32:53.482Z,11.50
2018-11-01T16:35:22.894Z,11.40
2018-11-01T16:37:52.406Z,11.40
2018-11-01T16:40:22.647Z,11.40
2018-11-01T16:42:52.492Z,11.30
2018-11-01T16:45:22.007Z,11.30
2018-11-01T16:47:51.448Z,11.20
2018-11-01T16:50:21.120Z,11.20
2018-11-01T16:52:50.670Z,11.20
2018-11-01T16:55:20.182Z,11.20
2018-11-01T16:57:49.680Z,11.20
2018-11-01T17:00:19.571Z,11.20
2018-11-01T17:02:50.047Z,11.20
2018-11-01T17:05:19.437Z,11.20
2018-11-01T17:07:48.821Z,11.20
2018-11-01T17:10:18.376Z,11.10
2018-11-01T17:12:47.792Z,11.00
2018-11-01T17:15:17.344Z,11.00
2018-11-01T17:17:46.633Z,10.90
2018-11-01T17:20:16.343Z,10.90
2018-11-01T17:22:45.740Z,10.80
2018-11-01T17:25:15.181Z,10.80
2018-11-01T17:27:44.634Z,10.80
2018-11-01T17:30:15.562Z,10.70
2018-11-01T17:32:53.036Z,10.70
2018-11-01T17:35:22.434Z,10.60
2018-11-01T17:37:51.953Z,10.60
2018-11-01T17:40:21.378Z,10.50
2018-11-01T17:42:50.810Z,10.40
2018-11-01T17:45:20.260Z,10.30
2018-11-01T17:47:49.762Z,10.30
2018-11-01T17:50:19.689Z,10.20
2018-11-01T17:52:49.172Z,10.20
2018-11-01T17:55:18.620Z,10.10
2018-11-01T17:57:48.032Z,10.10
2018-11-01T18:00:17.845Z,10.10
2018-11-01T18:02:47.694Z,10.00
2018-11-01T18:05:18.899Z,10.00
2018-11-01T18:07:48.344Z,10.00
2018-11-01T18:10:17.702Z,9.90
2018-11-01T18:12:47.139Z,10.00
2018-11-01T18:15:16.796Z,10.00
2018-11-01T18:17:46.295Z,9.90
2018-11-01T18:20:15.834Z,9.90
2018-11-01T18:22:45.533Z,9.90
2018-11-01T18:25:16.955Z,9.90
2018-11-01T18:27:46.900Z,9.90
2018-11-01T18:30:18.033Z,9.90
2018-11-01T18:32:48.707Z,9.90
2018-11-01T18:38:04.461Z,9.90
2018-11-01T18:40:35.890Z,9.90
2018-11-01T18:43:07.007Z,9.90
2018-11-01T18:45:38.035Z,9.90
2018-11-01T18:48:08.736Z,9.90
2018-11-01T18:50:41.580Z,10.00
2018-11-01T18:53:11.175Z,10.00
2018-11-01T18:55:40.800Z,10.10
2018-11-01T18:58:10.212Z,10.10
2018-11-01T19:00:39.658Z,10.10
2018-11-01T19:03:09.159Z,10.10
2018-11-01T19:05:38.798Z,10.10
2018-11-01T19:08:08.260Z,10.10
2018-11-01T19:10:37.746Z,10.10
2018-11-01T19:13:07.175Z,10.10
2018-11-01T19:15:36.970Z,10.10
2018-11-01T19:18:07.037Z,10.10
2018-11-01T19:20:36.528Z,10.10
2018-11-01T19:23:08.301Z,10.10
2018-11-01T19:25:37.875Z,10.10
2018-11-01T19:28:07.468Z,10.20
2018-11-01T19:30:36.902Z,10.20
2018-11-01T19:33:06.577Z,10.20
2018-11-01T19:35:36.068Z,10.20
2018-11-01T19:38:05.733Z,10.20
2018-11-01T19:40:35.244Z,10.30
2018-11-01T19:43:04.896Z,10.30
2018-11-01T19:45:35.445Z,10.40
2018-11-01T19:48:06.667Z,10.40
2018-11-01T19:50:37.641Z,10.50
2018-11-01T19:53:08.311Z,10.50
2018-11-01T19:55:40.975Z,10.60
2018-11-01T19:58:11.652Z,10.60
2018-11-01T20:00:42.629Z,10.60
2018-11-01T20:03:14.649Z,10.60
2018-11-01T20:05:46.760Z,10.60
2018-11-01T20:08:18.178Z,10.70
2018-11-01T20:10:48.894Z,10.80
2018-11-01T20:13:19.312Z,10.80
2018-11-01T20:15:49.522Z,10.80
2018-11-01T20:18:19.914Z,10.80
2018-11-01T20:20:50.139Z,10.80
2018-11-01T20:23:19.761Z,10.80
2018-11-01T20:25:51.524Z,10.80
2018-11-01T20:28:22.719Z,10.80
2018-11-01T20:30:52.932Z,10.80
2018-11-01T20:33:22.800Z,10.80
2018-11-01T20:35:52.816Z,10.80
2018-11-01T20:38:22.222Z,10.80
2018-11-01T20:40:51.709Z,10.80
2018-11-01T20:43:21.156Z,10.80
2018-11-01T20:45:50.601Z,10.70
2018-11-01T20:48:20.012Z,10.70
2018-11-01T20:50:50.393Z,10.60
2018-11-01T20:53:19.849Z,10.70
2018-11-01T20:55:49.668Z,10.60
2018-11-01T20:58:19.305Z,10.60
2018-11-01T21:00:48.963Z,10.60
2018-11-01T21:03:18.630Z,10.60
2018-11-01T21:05:48.681Z,10.50
2018-11-01T21:08:20.250Z,10.50
2018-11-01T21:10:51.515Z,10.50
2018-11-01T21:13:20.887Z,10.50
2018-11-01T21:15:50.459Z,10.50
2018-11-01T21:18:19.955Z,10.50
2018-11-01T21:20:49.373Z,10.50
2018-11-01T21:23:22.989Z,10.50
2018-11-01T21:25:52.671Z,10.60
2018-11-01T21:28:22.749Z,10.60
2018-11-01T21:30:52.997Z,10.60
2018-11-01T21:33:30.073Z,10.60
2018-11-01T21:36:02.831Z,10.60
2018-11-01T21:38:32.116Z,10.70
2018-11-01T21:41:01.566Z,10.60
2018-11-01T21:43:32.388Z,10.70
2018-11-01T21:46:05.193Z,10.70
2018-11-01T21:48:36.081Z,10.70
2018-11-01T21:51:06.520Z,10.60
2018-11-01T21:56:21.718Z,10.70
2018-11-01T21:58:51.172Z,10.70
2018-11-01T22:01:20.724Z,10.50
2018-11-01T22:06:41.075Z,10.60
2018-11-01T22:09:13.789Z,10.50
2018-11-01T22:11:44.715Z,10.50
2018-11-01T22:14:14.985Z,10.50
2018-11-01T22:16:45.661Z,10.50
2018-11-01T22:19:15.198Z,10.50
2018-11-01T22:21:44.599Z,10.40
2018-11-01T22:24:19.865Z,10.40
2018-11-01T22:26:49.393Z,10.40
2018-11-01T22:29:18.891Z,10.40
2018-11-01T22:31:48.352Z,10.40
2018-11-01T22:34:17.800Z,10.40
2018-11-01T22:36:47.324Z,10.30
2018-11-01T22:39:16.780Z,10.30
2018-11-01T22:41:46.180Z,10.30
2018-11-01T22:44:15.695Z,10.20
2018-11-01T22:46:45.232Z,10.20
2018-11-01T22:49:14.664Z,10.20
2018-11-01T22:51:44.052Z,10.10
2018-11-01T22:54:13.562Z,10.10
2018-11-01T22:56:42.992Z,10.00
2018-11-01T22:59:12.331Z,9.90
2018-11-01T23:01:41.748Z,9.90
2018-11-01T23:04:11.166Z,9.90
2018-11-01T23:06:40.591Z,9.80
2018-11-01T23:09:10.806Z,9.80
2018-11-01T23:11:41.206Z,9.80
2018-11-01T23:14:10.570Z,9.80
2018-11-01T23:16:40.094Z,9.80
2018-11-01T23:19:09.501Z,9.80
2018-11-01T23:21:38.926Z,9.70
2018-11-01T23:24:08.341Z,9.70
2018-11-01T23:26:37.731Z,9.70
2018-11-01T23:29:07.238Z,9.60
2018-11-01T23:31:36.808Z,9.60
2018-11-01T23:34:06.234Z,9.50
2018-11-01T23:36:41.058Z,9.50
2018-11-01T23:39:15.746Z,9.50
2018-11-01T23:41:50.445Z,9.50
2018-11-01T23:44:24.942Z,9.40
2018-11-01T23:46:59.478Z,9.40
2018-11-01T23:49:33.779Z,9.40
2018-11-01T23:52:08.425Z,9.40
2018-11-01T23:54:37.865Z,9.40
2018-11-01T23:57:07.323Z,9.30
2018-11-01T23:59:36.696Z,9.40
